Time,TemperatureF,DewpointF,PressureIn,WindDirection,WindDirectionDegrees,WindSpeedMPH,WindSpeedGustMPH,Humidity,HourlyPrecipIn,Conditions,Clouds,dailyrainin,SoftwareType,DateUTC
2013-05-05 00:02:00,28.0,21.0,29.93,SW,231,0.0,0.0,74,0.00,,,0.00,,2013-05-05 08:02:00,
2013-05-05 00:11:00,28.0,21.0,29.93,SW,231,0.0,0.0,74,0.00,,,0.00,,2013-05-05 08:11:00,
2013-05-05 00:21:00,27.0,20.0,29.94,SW,230,0.0,0.0,76,0.00,,,0.00,,2013-05-05 08:21:00,
2013-05-05 00:31:00,27.0,20.0,29.94,SW,230,0.0,0.0,76,0.00,,,0.00,,2013-05-05 08:31:00,
2013-05-05 00:42:00,27.0,20.0,29.94,SW,230,0.0,0.0,76,0.00,,,0.00,,2013-05-05 08:42:00,
2013-05-05 00:52:00,26.0,20.0,29.95,SW,231,0.0,0.0,78,0.00,,,0.00,,2013-05-05 08:52:00,
2013-05-05 01:01:00,26.0,20.0,29.95,SW,231,0.0,0.0,78,0.00,,,0.00,,2013-05-05 09:01:00,
2013-05-05 01:11:00,26.0,20.0,29.95,SW,231,0.0,0.0,78,0.00,,,0.00,,2013-05-05 09:11:00,
2013-05-05 01:21:00,26.0,21.0,29.96,West,259,0.0,1.0,80,0.00,,,0.00,,2013-05-05 09:21:00,
2013-05-05 01:32:00,26.0,21.0,29.96,West,259,0.0,1.0,80,0.00,,,0.00,,2013-05-05 09:32:00,
2013-05-05 01:42:00,26.0,21.0,29.96,West,259,0.0,1.0,80,0.00,,,0.00,,2013-05-05 09:42:00,
2013-05-05 01:52:00,27.0,21.0,29.97,West,259,0.0,0.0,79,0.00,,,0.00,,2013-05-05 09:52:00,
2013-05-05 02:02:00,27.0,21.0,29.97,West,259,0.0,0.0,79,0.00,,,0.00,,2013-05-05 10:02:00,
2013-05-05 02:12:00,27.0,21.0,29.97,West,259,0.0,0.0,79,0.00,,,0.00,,2013-05-05 10:12:00,
2013-05-05 02:22:00,27.0,21.0,29.97,West,259,0.0,0.0,78,0.00,,,0.00,,2013-05-05 10:22:00,
2013-05-05 02:32:00,27.0,21.0,29.97,West,259,0.0,0.0,78,0.00,,,0.00,,2013-05-05 10:32:00,
2013-05-05 02:42:00,27.0,21.0,29.97,West,259,0.0,0.0,78,0.00,,,0.00,,2013-05-05 10:42:00,
2013-05-05 02:52:00,26.0,20.0,29.98,West,259,0.0,1.0,78,0.00,,,0.00,,2013-05-05 10:52:00,
2013-05-05 03:01:00,26.0,20.0,29.98,West,259,0.0,1.0,78,0.00,,,0.00,,2013-05-05 11:01:00,
2013-05-05 03:11:00,26.0,20.0,29.98,West,259,0.0,1.0,78,0.00,,,0.00,,2013-05-05 11:11:00,
2013-05-05 03:21:00,25.0,19.0,29.98,West,259,0.0,0.0,78,0.00,,,0.00,,2013-05-05 11:21:00,
2013-05-05 03:32:00,25.0,19.0,29.98,West,259,0.0,0.0,78,0.00,,,0.00,,2013-05-05 11:32:00,
2013-05-05 03:42:00,25.0,19.0,29.98,West,259,0.0,0.0,78,0.00,,,0.00,,2013-05-05 11:42:00,
2013-05-05 03:51:00,24.0,18.0,29.99,WSW,247,0.0,0.0,78,0.00,,,0.00,,2013-05-05 11:51:00,
2013-05-05 04:01:00,24.0,18.0,29.99,WSW,247,0.0,0.0,78,0.00,,,0.00,,2013-05-05 12:01:00,
2013-05-05 04:11:00,24.0,18.0,29.99,WSW,247,0.0,0.0,78,0.00,,,0.00,,2013-05-05 12:11:00,
2013-05-05 04:21:00,24.0,18.0,30.00,WSW,240,0.0,0.0,76,0.00,,,0.00,,2013-05-05 12:21:00,
2013-05-05 04:32:00,24.0,18.0,30.00,WSW,240,0.0,0.0,76,0.00,,,0.00,,2013-05-05 12:32:00,
2013-05-05 04:42:00,24.0,18.0,30.00,WSW,240,0.0,0.0,76,0.00,,,0.00,,2013-05-05 12:42:00,
2013-05-05 04:51:00,23.0,17.0,30.01,WSW,240,0.0,0.0,78,0.00,,,0.00,,2013-05-05 12:51:00,
2013-05-05 05:01:00,23.0,17.0,30.01,WSW,240,0.0,0.0,78,0.00,,,0.00,,2013-05-05 13:01:00,
2013-05-05 05:11:00,23.0,17.0,30.01,WSW,240,0.0,0.0,78,0.00,,,0.00,,2013-05-05 13:11:00,
2013-05-05 05:21:00,21.0,16.0,30.02,WSW,240,0.0,0.0,79,0.00,,,0.00,,2013-05-05 13:21:00,
2013-05-05 05:32:00,21.0,16.0,30.02,WSW,240,0.0,0.0,79,0.00,,,0.00,,2013-05-05 13:32:00,
2013-05-05 05:42:00,21.0,16.0,30.02,WSW,240,0.0,0.0,79,0.00,,,0.00,,2013-05-05 13:42:00,
2013-05-05 05:52:00,21.0,16.0,30.02,WSW,240,0.0,0.0,80,0.00,,,0.00,,2013-05-05 13:52:00,
2013-05-05 06:01:00,21.0,16.0,30.02,WSW,240,0.0,0.0,80,0.00,,,0.00,,2013-05-05 14:01:00,
2013-05-05 06:11:00,21.0,16.0,30.02,WSW,240,0.0,0.0,80,0.00,,,0.00,,2013-05-05 14:11:00,
2013-05-05 06:21:00,21.0,16.0,30.03,WSW,240,0.0,0.0,81,0.00,,,0.00,,2013-05-05 14:21:00,
2013-05-05 06:31:00,21.0,16.0,30.03,WSW,240,0.0,0.0,81,0.00,,,0.00,,2013-05-05 14:31:00,
2013-05-05 06:41:00,21.0,16.0,30.03,WSW,240,0.0,0.0,81,0.00,,,0.00,,2013-05-05 14:41:00,
2013-05-05 06:51:00,23.0,17.0,30.04,WSW,240,0.0,0.0,79,0.00,,,0.00,,2013-05-05 14:51:00,
2013-05-05 07:01:00,23.0,17.0,30.04,WSW,240,0.0,0.0,79,0.00,,,0.00,,2013-05-05 15:01:00,
2013-05-05 07:11:00,23.0,17.0,30.04,WSW,240,0.0,0.0,79,0.00,,,0.00,,2013-05-05 15:11:00,
2013-05-05 07:21:00,24.0,18.0,30.04,WSW,240,0.0,1.0,78,0.00,,,0.00,,2013-05-05 15:21:00,
2013-05-05 07:32:00,24.0,18.0,30.04,WSW,240,0.0,1.0,78,0.00,,,0.00,,2013-05-05 15:32:00,
2013-05-05 07:43:00,24.0,18.0,30.04,WSW,240,0.0,1.0,78,0.00,,,0.00,,2013-05-05 15:43:00,
2013-05-05 07:53:00,25.0,19.0,30.05,SW,226,0.0,1.0,76,0.00,,,0.00,,2013-05-05 15:53:00,
2013-05-05 08:03:00,25.0,19.0,30.05,SW,226,0.0,1.0,76,0.00,,,0.00,,2013-05-05 16:03:00,
2013-05-05 08:12:00,25.0,19.0,30.05,SW,226,0.0,1.0,76,0.00,,,0.00,,2013-05-05 16:12:00,
2013-05-05 08:22:00,26.0,19.0,30.06,SW,226,0.0,0.0,74,0.00,,,0.00,,2013-05-05 16:22:00,
2013-05-05 08:32:00,26.0,19.0,30.06,SW,226,0.0,0.0,74,0.00,,,0.00,,2013-05-05 16:32:00,
2013-05-05 08:42:00,26.0,19.0,30.06,SW,226,0.0,0.0,74,0.00,,,0.00,,2013-05-05 16:42:00,
2013-05-05 08:52:00,26.0,19.0,30.06,SSW,200,0.0,2.0,74,0.00,,,0.00,,2013-05-05 16:52:00,
2013-05-05 09:02:00,26.0,19.0,30.06,SSW,200,0.0,2.0,74,0.00,,,0.00,,2013-05-05 17:02:00,
2013-05-05 09:12:00,26.0,19.0,30.06,SSW,200,0.0,2.0,74,0.00,,,0.00,,2013-05-05 17:12:00,
2013-05-05 09:23:00,28.0,20.0,30.07,SSE,161,0.0,1.0,71,0.00,,,0.00,,2013-05-05 17:23:00,
2013-05-05 09:32:00,28.0,20.0,30.07,SSE,161,0.0,1.0,71,0.00,,,0.00,,2013-05-05 17:32:00,
2013-05-05 09:42:00,28.0,20.0,30.07,SSE,161,0.0,1.0,71,0.00,,,0.00,,2013-05-05 17:42:00,
2013-05-05 09:52:00,29.0,18.0,30.08,West,269,1.0,4.0,62,0.00,,,0.00,,2013-05-05 17:52:00,
2013-05-05 10:01:00,29.0,18.0,30.08,West,269,1.0,4.0,62,0.00,,,0.00,,2013-05-05 18:01:00,
2013-05-05 10:11:00,29.0,18.0,30.08,West,269,1.0,4.0,62,0.00,,,0.00,,2013-05-05 18:11:00,
2013-05-05 10:21:00,30.0,19.0,30.08,South,189,1.0,6.0,62,0.00,,,0.00,,2013-05-05 18:21:00,
2013-05-05 10:32:00,30.0,19.0,30.08,South,189,1.0,6.0,62,0.00,,,0.00,,2013-05-05 18:32:00,
2013-05-05 10:42:00,30.0,19.0,30.08,South,189,1.0,6.0,62,0.00,,,0.00,,2013-05-05 18:42:00,
2013-05-05 10:51:00,32.0,15.0,30.08,SW,231,4.0,7.0,50,0.00,,,0.00,,2013-05-05 18:51:00,
2013-05-05 11:01:00,32.0,15.0,30.08,SW,231,4.0,7.0,50,0.00,,,0.00,,2013-05-05 19:01:00,
2013-05-05 11:11:00,32.0,15.0,30.08,SW,231,4.0,7.0,50,0.00,,,0.00,,2013-05-05 19:11:00,
2013-05-05 11:21:00,33.0,15.0,30.08,SSW,213,3.0,12.0,48,0.00,,,0.00,,2013-05-05 19:21:00,
2013-05-05 11:32:00,33.0,15.0,30.08,SSW,213,3.0,12.0,48,0.00,,,0.00,,2013-05-05 19:32:00,
2013-05-05 11:41:00,33.0,15.0,30.08,SSW,213,3.0,12.0,48,0.00,,,0.00,,2013-05-05 19:41:00,
2013-05-05 11:52:00,34.0,16.0,30.08,SSW,213,3.0,8.0,47,0.00,,,0.00,,2013-05-05 19:52:00,
2013-05-05 12:01:00,34.0,16.0,30.08,SSW,213,3.0,8.0,47,0.00,,,0.00,,2013-05-05 20:01:00,
2013-05-05 12:11:00,34.0,16.0,30.08,SSW,213,3.0,8.0,47,0.00,,,0.00,,2013-05-05 20:11:00,
2013-05-05 12:21:00,34.0,16.0,30.08,SSW,201,6.0,11.0,48,0.00,,,0.00,,2013-05-05 20:21:00,
2013-05-05 12:31:00,34.0,16.0,30.08,SSW,201,6.0,11.0,48,0.00,,,0.00,,2013-05-05 20:31:00,
2013-05-05 12:41:00,34.0,16.0,30.08,SSW,201,6.0,11.0,48,0.00,,,0.00,,2013-05-05 20:41:00,
2013-05-05 12:52:00,35.0,16.0,30.08,SSW,213,4.0,9.0,46,0.00,,,0.00,,2013-05-05 20:52:00,
2013-05-05 13:01:00,35.0,16.0,30.08,SSW,213,4.0,9.0,46,0.00,,,0.00,,2013-05-05 21:01:00,
2013-05-05 13:11:00,35.0,16.0,30.08,SSW,213,4.0,9.0,46,0.00,,,0.00,,2013-05-05 21:11:00,
2013-05-05 13:21:00,35.0,16.0,30.08,South,179,4.0,9.0,46,0.00,,,0.00,,2013-05-05 21:21:00,
2013-05-05 13:32:00,35.0,16.0,30.08,South,179,4.0,9.0,46,0.00,,,0.00,,2013-05-05 21:32:00,
2013-05-05 13:42:00,35.0,16.0,30.08,South,179,4.0,9.0,46,0.00,,,0.00,,2013-05-05 21:42:00,
2013-05-05 13:52:00,37.0,18.0,30.09,SW,229,4.0,7.0,46,0.00,,,0.00,,2013-05-05 21:52:00,
2013-05-05 14:02:00,37.0,18.0,30.09,SW,229,4.0,7.0,46,0.00,,,0.00,,2013-05-05 22:02:00,
2013-05-05 14:12:00,37.0,18.0,30.09,SW,229,4.0,7.0,46,0.00,,,0.00,,2013-05-05 22:12:00,
2013-05-05 14:22:00,38.0,15.0,30.08,SW,218,5.0,8.0,38,0.00,,,0.00,,2013-05-05 22:22:00,
2013-05-05 14:33:00,38.0,15.0,30.08,SW,218,5.0,8.0,38,0.00,,,0.00,,2013-05-05 22:33:00,
2013-05-05 14:42:00,38.0,15.0,30.08,SW,218,5.0,8.0,38,0.00,,,0.00,,2013-05-05 22:42:00,
2013-05-05 14:52:00,38.0,15.0,30.08,WSW,254,2.0,12.0,38,0.00,,,0.00,,2013-05-05 22:52:00,
2013-05-05 15:02:00,38.0,15.0,30.08,WSW,254,2.0,12.0,38,0.00,,,0.00,,2013-05-05 23:02:00,
2013-05-05 15:11:00,38.0,15.0,30.08,WSW,254,2.0,12.0,38,0.00,,,0.00,,2013-05-05 23:11:00,
2013-05-05 15:21:00,39.0,18.0,30.08,SW,220,3.0,9.0,42,0.00,,,0.00,,2013-05-05 23:21:00,
2013-05-05 15:32:00,39.0,18.0,30.08,SW,220,3.0,9.0,42,0.00,,,0.00,,2013-05-05 23:32:00,
2013-05-05 15:42:00,39.0,18.0,30.08,SW,220,3.0,9.0,42,0.00,,,0.00,,2013-05-05 23:42:00,
2013-05-05 15:52:00,39.0,17.0,30.08,SSW,195,3.0,7.0,41,0.00,,,0.00,,2013-05-05 23:52:00,
2013-05-05 16:01:00,39.0,17.0,30.08,SSW,195,3.0,7.0,41,0.00,,,0.00,,2013-05-06 00:01:00,
2013-05-05 16:11:00,39.0,17.0,30.08,SSW,195,3.0,7.0,41,0.00,,,0.00,,2013-05-06 00:11:00,
2013-05-05 16:21:00,39.0,18.0,30.07,SW,221,3.0,7.0,42,0.00,,,0.00,,2013-05-06 00:21:00,
2013-05-05 16:31:00,39.0,18.0,30.07,SW,221,3.0,7.0,42,0.00,,,0.00,,2013-05-06 00:31:00,
2013-05-05 16:41:00,39.0,18.0,30.07,SW,221,3.0,7.0,42,0.00,,,0.00,,2013-05-06 00:41:00,
2013-05-05 16:51:00,39.0,15.0,30.07,West,263,2.0,8.0,37,0.00,,,0.00,,2013-05-06 00:51:00,
2013-05-05 17:01:00,39.0,15.0,30.07,West,263,2.0,8.0,37,0.00,,,0.00,,2013-05-06 01:01:00,
2013-05-05 17:11:00,39.0,15.0,30.07,West,263,2.0,8.0,37,0.00,,,0.00,,2013-05-06 01:11:00,
2013-05-05 17:21:00,39.0,16.0,30.07,WSW,242,4.0,10.0,38,0.00,,,0.00,,2013-05-06 01:21:00,
2013-05-05 17:31:00,39.0,16.0,30.07,WSW,242,4.0,10.0,38,0.00,,,0.00,,2013-05-06 01:31:00,
2013-05-05 17:41:00,39.0,16.0,30.07,WSW,242,4.0,10.0,38,0.00,,,0.00,,2013-05-06 01:41:00,
2013-05-05 17:52:00,40.0,17.0,30.06,WSW,257,1.0,4.0,39,0.00,,,0.00,,2013-05-06 01:52:00,
2013-05-05 18:01:00,40.0,17.0,30.06,WSW,257,1.0,4.0,39,0.00,,,0.00,,2013-05-06 02:01:00,
2013-05-05 18:11:00,40.0,17.0,30.06,WSW,257,1.0,4.0,39,0.00,,,0.00,,2013-05-06 02:11:00,
2013-05-05 18:21:00,40.0,16.0,30.06,WNW,285,5.0,8.0,37,0.00,,,0.00,,2013-05-06 02:21:00,
2013-05-05 18:32:00,40.0,16.0,30.06,WNW,285,5.0,8.0,37,0.00,,,0.00,,2013-05-06 02:32:00,
2013-05-05 18:42:00,40.0,16.0,30.06,WNW,285,5.0,8.0,37,0.00,,,0.00,,2013-05-06 02:42:00,
2013-05-05 18:51:00,40.0,16.0,30.06,West,273,3.0,6.0,37,0.00,,,0.00,,2013-05-06 02:51:00,
2013-05-05 19:01:00,40.0,16.0,30.06,West,273,3.0,6.0,37,0.00,,,0.00,,2013-05-06 03:01:00,
2013-05-05 19:11:00,40.0,16.0,30.06,West,273,3.0,6.0,37,0.00,,,0.00,,2013-05-06 03:11:00,
2013-05-05 19:22:00,40.0,16.0,30.06,SSW,211,3.0,8.0,38,0.00,,,0.00,,2013-05-06 03:22:00,
2013-05-05 19:33:00,40.0,16.0,30.06,SSW,211,3.0,8.0,38,0.00,,,0.00,,2013-05-06 03:33:00,
2013-05-05 19:42:00,40.0,16.0,30.06,SSW,211,3.0,8.0,38,0.00,,,0.00,,2013-05-06 03:42:00,
2013-05-05 19:52:00,40.0,15.0,30.05,WNW,283,3.0,8.0,36,0.00,,,0.00,,2013-05-06 03:52:00,
2013-05-05 20:02:00,40.0,15.0,30.05,WNW,283,3.0,8.0,36,0.00,,,0.00,,2013-05-06 04:02:00,
2013-05-05 20:12:00,40.0,15.0,30.05,WNW,283,3.0,8.0,36,0.00,,,0.00,,2013-05-06 04:12:00,
2013-05-05 20:23:00,39.0,14.0,30.05,West,279,2.0,5.0,35,0.00,,,0.00,,2013-05-06 04:23:00,
2013-05-05 20:32:00,39.0,14.0,30.05,West,279,2.0,5.0,35,0.00,,,0.00,,2013-05-06 04:32:00,
2013-05-05 20:42:00,39.0,14.0,30.05,West,279,2.0,5.0,35,0.00,,,0.00,,2013-05-06 04:42:00,
2013-05-05 20:52:00,40.0,15.0,30.05,West,272,3.0,5.0,36,0.00,,,0.00,,2013-05-06 04:52:00,
2013-05-05 21:02:00,40.0,15.0,30.05,West,272,3.0,5.0,36,0.00,,,0.00,,2013-05-06 05:02:00,
2013-05-05 21:12:00,40.0,15.0,30.05,West,272,3.0,5.0,36,0.00,,,0.00,,2013-05-06 05:12:00,
2013-05-05 21:22:00,39.0,15.0,30.05,West,266,2.0,4.0,37,0.00,,,0.00,,2013-05-06 05:22:00,
2013-05-05 21:32:00,39.0,15.0,30.05,West,266,2.0,4.0,37,0.00,,,0.00,,2013-05-06 05:32:00,
2013-05-05 21:42:00,39.0,15.0,30.05,West,266,2.0,4.0,37,0.00,,,0.00,,2013-05-06 05:42:00,
2013-05-05 21:52:00,37.0,15.0,30.06,SW,227,1.0,2.0,40,0.00,,,0.00,,2013-05-06 05:52:00,
2013-05-05 22:02:00,37.0,15.0,30.06,SW,227,1.0,2.0,40,0.00,,,0.00,,2013-05-06 06:02:00,
2013-05-05 22:12:00,37.0,15.0,30.06,SW,227,1.0,2.0,40,0.00,,,0.00,,2013-05-06 06:12:00,
2013-05-05 22:21:00,36.0,13.0,30.06,WSW,252,0.0,2.0,38,0.00,,,0.00,,2013-05-06 06:21:00,
2013-05-05 22:31:00,36.0,13.0,30.06,WSW,252,0.0,2.0,38,0.00,,,0.00,,2013-05-06 06:31:00,
2013-05-05 22:41:00,36.0,13.0,30.06,WSW,252,0.0,2.0,38,0.00,,,0.00,,2013-05-06 06:41:00,
2013-05-05 22:51:00,34.0,18.0,30.07,WSW,252,0.0,1.0,52,0.00,,,0.00,,2013-05-06 06:51:00,
2013-05-05 23:01:00,34.0,18.0,30.07,WSW,252,0.0,1.0,52,0.00,,,0.00,,2013-05-06 07:01:00,
2013-05-05 23:11:00,34.0,18.0,30.07,WSW,252,0.0,1.0,52,0.00,,,0.00,,2013-05-06 07:11:00,
2013-05-05 23:22:00,31.0,17.0,30.07,WSW,252,0.0,1.0,56,0.00,,,0.00,,2013-05-06 07:22:00,
2013-05-05 23:31:00,31.0,17.0,30.07,WSW,252,0.0,1.0,56,0.00,,,0.00,,2013-05-06 07:31:00,
2013-05-05 23:42:00,31.0,17.0,30.07,WSW,252,0.0,1.0,56,0.00,,,0.00,,2013-05-06 07:42:00,
2013-05-05 23:52:00,29.0,18.0,30.07,WSW,252,0.0,0.0,62,0.00,,,0.00,,2013-05-06 07:52:00,